createdAt,value
2022-10-08T00:01:24.237Z,37.10
2022-10-08T00:03:54.564Z,48.22
2022-10-08T00:06:31.914Z,31.30
2022-10-08T00:09:08.499Z,38.05
2022-10-08T00:11:39.666Z,38.45
2022-10-08T00:14:08.239Z,33.08
2022-10-08T00:16:40.396Z,36.45
2022-10-08T00:21:41.963Z,43.58
2022-10-08T00:24:17.402Z,33.25
2022-10-08T00:26:46.197Z,36.33
2022-10-08T00:29:17.453Z,41.28
2022-10-08T00:31:48.044Z,39.40
2022-10-08T00:34:19.927Z,36.38
2022-10-08T00:36:53.409Z,36.95
2022-10-08T00:39:23.964Z,41.55
2022-10-08T00:41:55.087Z,43.05
2022-10-08T00:44:53.745Z,42.75
2022-10-08T00:47:32.697Z,47.75
2022-10-08T00:50:47.126Z,33.33
2022-10-08T00:53:14.336Z,44.75
2022-10-08T00:55:43.771Z,39.67
2022-10-08T00:58:23.074Z,34.50
2022-10-08T01:00:50.386Z,36.92
2022-10-08T01:03:17.937Z,31.40
2022-10-08T01:06:01.264Z,36.03
2022-10-08T01:08:58.496Z,34.05
2022-10-08T01:11:31.369Z,32.08
2022-10-08T01:14:07.513Z,34.72
2022-10-08T01:17:05.212Z,39.05
2022-10-08T01:19:57.217Z,27.45
2022-10-08T01:22:57.613Z,33.85
2022-10-08T01:25:38.302Z,30.45
2022-10-08T01:28:40.966Z,30.90
2022-10-08T01:31:31.373Z,33.22
2022-10-08T01:34:00.389Z,31.98
2022-10-08T01:36:33.243Z,33.50
2022-10-08T01:39:08.402Z,31.50
2022-10-08T01:41:35.905Z,33.20
2022-10-08T01:44:13.659Z,27.85
2022-10-08T01:46:46.647Z,47.00
2022-10-08T01:49:22.176Z,43.75
2022-10-08T01:51:58.301Z,39.60
2022-10-08T01:54:28.896Z,49.67
2022-10-08T01:56:59.414Z,41.78
2022-10-08T01:59:52.179Z,57.63
2022-10-08T02:02:25.430Z,50.90
2022-10-08T02:04:55.658Z,48.50
2022-10-08T02:07:30.993Z,43.28
2022-10-08T02:10:11.437Z,51.20
2022-10-08T02:12:40.314Z,66.22
2022-10-08T02:15:15.637Z,56.47
2022-10-08T02:18:21.087Z,50.05
2022-10-08T02:21:19.001Z,48.05
2022-10-08T02:24:33.831Z,48.47
2022-10-08T02:27:04.672Z,46.40
2022-10-08T02:29:37.925Z,44.00
2022-10-08T02:32:11.436Z,47.95
2022-10-08T02:34:56.467Z,52.47
2022-10-08T02:37:28.251Z,53.80
2022-10-08T02:40:10.905Z,53.97
2022-10-08T02:42:44.984Z,46.65
2022-10-08T02:45:38.014Z,53.33
2022-10-08T02:48:15.169Z,55.95
2022-10-08T02:50:45.696Z,48.67
2022-10-08T02:53:18.368Z,51.00
2022-10-08T02:56:08.526Z,57.47
2022-10-08T02:58:38.924Z,55.45
2022-10-08T03:01:30.993Z,55.63
2022-10-08T03:04:12.683Z,58.72
2022-10-08T03:06:43.438Z,57.33
2022-10-08T03:09:14.498Z,53.97
2022-10-08T03:11:44.532Z,51.15
2022-10-08T03:14:15.630Z,59.33
2022-10-08T03:16:45.994Z,58.20
2022-10-08T03:19:17.024Z,51.72
2022-10-08T03:21:46.983Z,50.72
2022-10-08T03:24:15.454Z,52.90
2022-10-08T03:26:43.213Z,52.72
2022-10-08T03:29:11.190Z,55.55
2022-10-08T03:31:38.836Z,46.83
2022-10-08T03:34:12.144Z,49.08
2022-10-08T03:36:39.287Z,53.67
2022-10-08T03:39:11.751Z,52.45
2022-10-08T03:41:41.282Z,49.13
2022-10-08T03:44:09.699Z,49.60
2022-10-08T03:46:36.996Z,52.90
2022-10-08T03:49:04.362Z,56.78
2022-10-08T03:51:31.493Z,52.30
2022-10-08T03:53:58.815Z,55.22
2022-10-08T03:56:26.519Z,54.13
2022-10-08T03:58:59.660Z,52.85
2022-10-08T04:01:29.086Z,47.25
2022-10-08T04:04:01.335Z,51.42
2022-10-08T04:06:28.684Z,58.85
2022-10-08T04:09:01.245Z,51.53
2022-10-08T04:11:29.300Z,59.40
2022-10-08T04:13:56.734Z,55.05
2022-10-08T04:16:26.320Z,51.80
2022-10-08T04:18:56.485Z,53.97
2022-10-08T04:21:23.644Z,56.42
2022-10-08T04:23:50.964Z,50.85
2022-10-08T04:26:18.453Z,60.20
2022-10-08T04:28:46.334Z,54.78
2022-10-08T04:31:21.887Z,49.65
2022-10-08T04:33:51.686Z,55.70
2022-10-08T04:36:22.928Z,54.38
2022-10-08T04:38:50.745Z,49.58
2022-10-08T04:41:22.577Z,48.03
2022-10-08T04:43:50.644Z,58.40
2022-10-08T04:46:23.840Z,49.50
2022-10-08T04:48:54.673Z,51.00
2022-10-08T04:51:24.980Z,53.60
2022-10-08T04:53:53.930Z,56.70
2022-10-08T04:56:31.182Z,62.38
2022-10-08T04:58:59.855Z,59.80
2022-10-08T05:01:30.772Z,55.47
2022-10-08T05:03:59.648Z,50.83
2022-10-08T05:06:30.406Z,65.30
2022-10-08T05:09:03.101Z,53.50
2022-10-08T05:11:31.950Z,42.38
2022-10-08T05:13:59.914Z,53.53
2022-10-08T05:16:27.784Z,53.60
2022-10-08T05:18:56.346Z,48.53
2022-10-08T05:21:27.775Z,53.78
2022-10-08T05:24:05.322Z,48.80
2022-10-08T05:29:28.548Z,43.72
2022-10-08T05:31:58.871Z,49.75
2022-10-08T05:34:26.338Z,48.03
2022-10-08T05:36:53.624Z,60.80
2022-10-08T05:39:25.606Z,43.42
2022-10-08T05:41:54.182Z,81.63
2022-10-08T05:44:21.637Z,68.97
2022-10-08T05:46:48.806Z,58.00
2022-10-08T05:49:22.522Z,61.03
2022-10-08T05:51:53.516Z,58.70
2022-10-08T05:54:23.541Z,57.10
2022-10-08T05:56:50.757Z,61.95
2022-10-08T05:59:23.699Z,56.08
2022-10-08T06:01:51.998Z,55.65
2022-10-08T06:04:19.699Z,46.42
2022-10-08T06:06:47.173Z,51.78
2022-10-08T06:09:25.494Z,64.18
2022-10-08T06:11:52.781Z,51.40
2022-10-08T06:14:25.903Z,55.03
2022-10-08T06:16:57.916Z,49.88
2022-10-08T06:19:25.121Z,51.00
2022-10-08T06:21:52.419Z,46.20
2022-10-08T06:24:21.032Z,59.35
2022-10-08T06:26:48.263Z,52.72
2022-10-08T06:29:19.275Z,49.15
2022-10-08T06:31:47.107Z,53.58
2022-10-08T06:34:19.796Z,56.45
2022-10-08T06:36:46.958Z,50.13
2022-10-08T06:39:17.792Z,50.95
2022-10-08T06:41:47.876Z,49.22
2022-10-08T06:44:15.768Z,43.67
2022-10-08T06:46:43.242Z,52.05
2022-10-08T06:49:13.400Z,39.72
2022-10-08T06:51:40.818Z,53.17
2022-10-08T06:54:08.736Z,42.97
2022-10-08T06:56:38.733Z,53.40
2022-10-08T06:59:06.934Z,66.22
2022-10-08T07:01:35.534Z,51.80
2022-10-08T07:04:04.231Z,55.30
2022-10-08T07:06:31.633Z,67.60
2022-10-08T07:09:01.403Z,79.25
2022-10-08T07:11:33.670Z,61.50
2022-10-08T07:14:03.521Z,65.88
2022-10-08T07:16:30.734Z,46.70
2022-10-08T07:19:01.513Z,48.58
2022-10-08T07:21:30.255Z,65.97
2022-10-08T07:24:02.091Z,51.80
2022-10-08T07:26:34.952Z,63.38
2022-10-08T07:29:24.629Z,64.70
2022-10-08T07:31:51.969Z,64.78
2022-10-08T07:34:22.109Z,65.38
2022-10-08T07:36:49.245Z,61.90
2022-10-08T07:39:24.049Z,41.85
2022-10-08T07:41:51.729Z,46.33
2022-10-08T07:44:19.118Z,44.13
2022-10-08T07:46:50.609Z,41.33
2022-10-08T07:49:19.420Z,36.10
2022-10-08T07:51:48.188Z,47.35
2022-10-08T07:54:21.456Z,36.80
2022-10-08T07:56:48.809Z,44.95
2022-10-08T07:59:16.247Z,34.80
2022-10-08T08:01:43.861Z,38.03
2022-10-08T08:04:12.267Z,40.53
2022-10-08T08:06:47.791Z,29.70
2022-10-08T08:09:18.402Z,26.83
2022-10-08T08:11:46.532Z,21.00
2022-10-08T08:14:13.826Z,23.42
2022-10-08T08:16:40.989Z,19.50
2022-10-08T08:19:08.478Z,39.15
2022-10-08T08:21:39.637Z,21.40
2022-10-08T08:24:11.485Z,21.83
2022-10-08T08:26:41.539Z,22.20
2022-10-08T08:29:13.623Z,22.95
2022-10-08T08:34:18.985Z,21.92
2022-10-08T08:36:49.379Z,21.10
2022-10-08T08:39:24.379Z,22.70
2022-10-08T08:42:25.456Z,27.75
2022-10-08T08:45:02.091Z,20.55
2022-10-08T08:48:06.790Z,24.52
2022-10-08T08:50:38.292Z,21.40
2022-10-08T08:53:08.868Z,23.60
2022-10-08T08:55:47.353Z,15.80
2022-10-08T08:59:05.549Z,21.25
2022-10-08T09:01:45.338Z,20.10
2022-10-08T09:04:45.111Z,20.48
2022-10-08T09:07:18.969Z,18.30
2022-10-08T09:09:53.486Z,19.63
2022-10-08T09:12:31.249Z,24.77
2022-10-08T09:15:01.668Z,21.33
2022-10-08T09:17:36.480Z,22.55
2022-10-08T09:20:04.355Z,16.38
2022-10-08T09:22:41.858Z,14.77
2022-10-08T09:25:31.497Z,25.55
2022-10-08T09:28:04.885Z,14.50
2022-10-08T09:30:45.003Z,17.67
2022-10-08T09:33:18.690Z,15.80
2022-10-08T09:35:55.115Z,14.90
2022-10-08T09:38:28.166Z,15.88
2022-10-08T09:41:19.384Z,14.45
2022-10-08T09:44:25.578Z,15.15
2022-10-08T09:47:06.443Z,18.20
2022-10-08T09:49:37.908Z,20.23
2022-10-08T09:52:19.642Z,12.27
2022-10-08T09:54:52.485Z,11.77
2022-10-08T09:57:23.481Z,12.57
2022-10-08T09:59:59.239Z,12.27
2022-10-08T10:02:38.746Z,16.20
2022-10-08T10:05:24.824Z,12.23
2022-10-08T10:07:53.004Z,14.98
2022-10-08T10:10:41.070Z,15.40
2022-10-08T10:13:34.965Z,20.42
2022-10-08T10:16:33.207Z,16.45
2022-10-08T10:19:17.068Z,18.10
2022-10-08T10:22:00.181Z,18.23
2022-10-08T10:24:46.438Z,12.93
2022-10-08T10:27:30.711Z,11.57
2022-10-08T10:30:14.949Z,13.25
2022-10-08T10:33:19.564Z,10.85
2022-10-08T10:35:54.589Z,13.52
2022-10-08T10:38:27.990Z,11.77
2022-10-08T10:41:09.866Z,10.40
2022-10-08T10:43:50.872Z,17.88
2022-10-08T10:46:41.936Z,16.33
2022-10-08T10:49:15.256Z,15.70
2022-10-08T10:52:19.986Z,19.10
2022-10-08T10:55:14.809Z,14.02
2022-10-08T10:58:20.564Z,13.50
2022-10-08T11:01:15.930Z,17.42
2022-10-08T11:04:13.307Z,15.93
2022-10-08T11:06:55.260Z,12.27
2022-10-08T11:09:42.754Z,11.32
2022-10-08T11:12:38.713Z,13.73
2022-10-08T11:16:10.047Z,17.33
2022-10-08T11:18:59.431Z,15.95
2022-10-08T11:21:50.128Z,15.93
2022-10-08T11:24:23.997Z,9.45
2022-10-08T11:26:57.900Z,10.10
2022-10-08T11:30:00.532Z,13.45
2022-10-08T11:32:29.944Z,15.48
2022-10-08T11:35:12.276Z,10.32
2022-10-08T11:38:00.001Z,14.45
2022-10-08T11:40:53.947Z,13.48
2022-10-08T11:44:01.729Z,10.10
2022-10-08T11:46:36.810Z,15.57
2022-10-08T11:49:15.577Z,8.43
2022-10-08T11:51:50.574Z,12.55
2022-10-08T11:54:26.523Z,12.65
2022-10-08T11:57:25.725Z,12.43
2022-10-08T11:59:59.792Z,10.98
2022-10-08T12:02:35.929Z,14.65
2022-10-08T12:05:47.881Z,12.10
2022-10-08T12:08:59.385Z,13.63
2022-10-08T12:11:32.357Z,11.23
2022-10-08T12:14:17.381Z,13.63
2022-10-08T12:16:57.058Z,9.52
2022-10-08T12:19:33.739Z,11.05
2022-10-08T12:22:10.372Z,12.75
2022-10-08T12:24:40.423Z,9.25
2022-10-08T12:27:46.797Z,10.60
2022-10-08T12:30:17.681Z,13.25
2022-10-08T12:32:45.102Z,17.27
2022-10-08T12:35:34.161Z,14.23
2022-10-08T12:38:29.355Z,15.00
2022-10-08T12:41:41.781Z,15.18
2022-10-08T12:44:45.748Z,9.80
2022-10-08T12:47:37.193Z,10.00
2022-10-08T12:51:05.451Z,11.20
2022-10-08T12:53:33.615Z,12.45
2022-10-08T12:56:01.149Z,15.20
2022-10-08T12:58:35.891Z,11.10
2022-10-08T13:01:05.894Z,14.52
2022-10-08T13:03:33.322Z,12.68
2022-10-08T13:06:31.776Z,10.27
2022-10-08T13:09:03.326Z,9.00
2022-10-08T13:11:30.564Z,15.55
2022-10-08T13:13:57.877Z,11.77
2022-10-08T13:16:26.985Z,15.40
2022-10-08T13:19:02.575Z,12.18
2022-10-08T13:21:36.176Z,10.40
2022-10-08T13:24:25.381Z,12.57
2022-10-08T13:26:55.986Z,10.15
2022-10-08T13:29:23.186Z,16.92
2022-10-08T13:32:14.523Z,8.80
2022-10-08T13:34:43.695Z,9.70
2022-10-08T13:37:22.951Z,12.63
2022-10-08T13:40:00.902Z,18.00
2022-10-08T13:42:39.950Z,12.88
2022-10-08T13:45:17.210Z,11.90
2022-10-08T13:47:45.088Z,15.30
2022-10-08T13:50:16.780Z,9.05
2022-10-08T13:52:53.979Z,11.40
2022-10-08T13:55:21.163Z,12.02
2022-10-08T13:57:48.590Z,9.45
2022-10-08T14:00:16.830Z,9.23
2022-10-08T14:02:46.727Z,11.75
2022-10-08T14:05:14.008Z,8.32
2022-10-08T14:07:46.297Z,8.13
2022-10-08T14:10:14.529Z,12.73
2022-10-08T14:12:41.759Z,12.07
2022-10-08T14:15:13.660Z,13.35
2022-10-08T14:17:40.943Z,9.90
2022-10-08T14:20:09.642Z,11.32
2022-10-08T14:22:39.829Z,10.23
2022-10-08T14:25:16.866Z,18.58
2022-10-08T14:27:45.585Z,12.48
2022-10-08T14:30:14.690Z,11.75
2022-10-08T14:32:42.413Z,11.50
2022-10-08T14:35:11.333Z,14.38
2022-10-08T14:37:38.916Z,11.32
2022-10-08T14:40:11.321Z,10.57
2022-10-08T14:42:38.437Z,11.95
2022-10-08T14:45:06.209Z,10.00
2022-10-08T14:47:33.325Z,14.05
2022-10-08T14:50:00.716Z,7.13
2022-10-08T14:52:27.915Z,12.02
2022-10-08T14:54:55.318Z,8.82
2022-10-08T14:57:23.170Z,8.05
2022-10-08T14:59:50.296Z,7.03
2022-10-08T15:02:17.456Z,13.40
2022-10-08T15:04:44.593Z,11.75
2022-10-08T15:07:11.795Z,11.80
2022-10-08T15:09:41.402Z,11.48
2022-10-08T15:12:08.812Z,10.45
2022-10-08T15:14:38.661Z,21.42
2022-10-08T15:17:05.968Z,23.08
2022-10-08T15:19:33.282Z,14.77
2022-10-08T15:22:00.676Z,17.17
2022-10-08T15:24:27.883Z,25.05
2022-10-08T15:26:57.285Z,22.83
2022-10-08T15:29:24.381Z,21.65
2022-10-08T15:31:54.033Z,18.33
2022-10-08T15:34:22.583Z,16.98
2022-10-08T15:36:49.856Z,17.38
2022-10-08T15:39:21.247Z,15.70
2022-10-08T15:41:54.491Z,16.88
2022-10-08T15:44:26.072Z,15.07
2022-10-08T15:47:04.608Z,15.63
2022-10-08T15:49:37.269Z,15.13
2022-10-08T15:52:07.643Z,16.88
2022-10-08T15:54:42.156Z,24.05
2022-10-08T15:57:13.669Z,33.92
2022-10-08T15:59:43.507Z,26.50
2022-10-08T16:02:17.624Z,22.10
2022-10-08T16:04:48.744Z,27.10
2022-10-08T16:07:17.399Z,16.83
2022-10-08T16:09:44.584Z,16.20
2022-10-08T16:12:14.296Z,16.02
2022-10-08T16:14:41.462Z,13.70
2022-10-08T16:17:09.056Z,8.82
2022-10-08T16:19:38.618Z,14.38
2022-10-08T16:22:06.664Z,12.27
2022-10-08T16:24:33.983Z,20.92
2022-10-08T16:27:01.134Z,7.45
2022-10-08T16:29:30.694Z,12.32
2022-10-08T16:31:58.771Z,12.10
2022-10-08T16:34:28.595Z,9.07
2022-10-08T16:36:56.166Z,13.95
2022-10-08T16:39:25.839Z,13.15
2022-10-08T16:41:52.970Z,7.30
2022-10-08T16:44:21.429Z,7.88
2022-10-08T16:46:52.888Z,15.15
2022-10-08T16:49:26.901Z,7.13
2022-10-08T16:52:00.802Z,11.25
2022-10-08T16:54:28.812Z,14.73
2022-10-08T16:56:56.811Z,12.23
2022-10-08T16:59:29.070Z,11.93
2022-10-08T17:04:28.451Z,8.75
2022-10-08T17:06:56.092Z,8.18
2022-10-08T17:09:23.595Z,13.00
2022-10-08T17:11:50.839Z,14.43
2022-10-08T17:14:20.952Z,13.60
2022-10-08T17:16:50.581Z,10.77
2022-10-08T17:19:18.618Z,16.17
2022-10-08T17:21:48.440Z,11.43
2022-10-08T17:24:15.612Z,18.20
2022-10-08T17:26:42.815Z,15.48
2022-10-08T17:29:12.849Z,14.55
2022-10-08T17:31:40.805Z,10.38
2022-10-08T17:34:13.513Z,11.48
2022-10-08T17:36:43.995Z,16.23
2022-10-08T17:39:15.784Z,20.13
2022-10-08T17:41:43.673Z,12.63
2022-10-08T17:44:12.146Z,15.93
2022-10-08T17:46:50.175Z,14.23
2022-10-08T17:49:20.661Z,9.23
2022-10-08T17:51:48.567Z,15.63
2022-10-08T17:54:19.774Z,12.02
2022-10-08T17:56:48.196Z,9.65
2022-10-08T17:59:17.749Z,10.25
2022-10-08T18:01:46.175Z,10.02
2022-10-08T18:04:16.451Z,16.17
2022-10-08T18:06:46.474Z,17.08
2022-10-08T18:09:20.820Z,13.38
2022-10-08T18:11:53.423Z,16.77
2022-10-08T18:14:22.282Z,14.20
2022-10-08T18:16:49.906Z,11.15
2022-10-08T18:19:18.421Z,12.07
2022-10-08T18:21:46.420Z,11.73
2022-10-08T18:24:13.928Z,15.52
2022-10-08T18:26:41.166Z,13.60
2022-10-08T18:29:11.976Z,11.57
2022-10-08T18:31:42.261Z,13.20
2022-10-08T18:34:15.783Z,17.55
2022-10-08T18:36:45.347Z,16.90
2022-10-08T18:39:19.075Z,21.45
2022-10-08T18:41:49.467Z,18.70
2022-10-08T18:44:22.066Z,15.10
2022-10-08T18:46:50.180Z,15.88
2022-10-08T18:49:20.698Z,13.70
2022-10-08T18:51:50.119Z,18.73
2022-10-08T18:54:17.478Z,18.58
2022-10-08T18:56:44.522Z,14.00
2022-10-08T18:59:15.006Z,12.80
2022-10-08T19:01:47.604Z,13.98
2022-10-08T19:04:21.043Z,14.38
2022-10-08T19:06:51.171Z,17.48
2022-10-08T19:09:19.004Z,16.90
2022-10-08T19:11:49.819Z,12.95
2022-10-08T19:14:21.868Z,14.98
2022-10-08T19:16:51.897Z,15.60
2022-10-08T19:19:27.409Z,21.40
2022-10-08T19:21:55.767Z,24.27
2022-10-08T19:24:27.559Z,19.80
2022-10-08T19:26:56.329Z,15.43
2022-10-08T19:29:29.555Z,18.15
2022-10-08T19:31:58.016Z,12.98
2022-10-08T19:34:29.331Z,17.17
2022-10-08T19:36:56.624Z,14.43
2022-10-08T19:39:31.027Z,14.18
2022-10-08T19:42:00.666Z,13.00
2022-10-08T19:44:27.838Z,14.98
2022-10-08T19:46:55.148Z,13.20
2022-10-08T19:49:22.500Z,18.30
2022-10-08T19:51:49.732Z,13.18
2022-10-08T19:54:18.304Z,16.00
2022-10-08T19:56:45.855Z,23.60
2022-10-08T19:59:13.805Z,9.70
2022-10-08T20:01:42.834Z,16.75
2022-10-08T20:04:11.896Z,15.73
2022-10-08T20:06:43.262Z,16.25
2022-10-08T20:09:14.210Z,10.50
2022-10-08T20:11:46.334Z,15.93
2022-10-08T20:14:14.908Z,12.13
2022-10-08T20:16:45.944Z,14.90
2022-10-08T20:19:21.065Z,13.95
2022-10-08T20:21:49.861Z,10.60
2022-10-08T20:24:19.004Z,13.38
2022-10-08T20:26:46.628Z,14.15
2022-10-08T20:29:20.842Z,9.88
2022-10-08T20:31:54.302Z,15.27
2022-10-08T20:34:28.829Z,15.10
2022-10-08T20:36:58.067Z,12.38
2022-10-08T20:39:25.316Z,15.90
2022-10-08T20:41:52.517Z,16.63
2022-10-08T20:44:20.282Z,14.38
2022-10-08T20:46:50.611Z,13.25
2022-10-08T20:49:18.348Z,14.07
2022-10-08T20:51:45.505Z,13.02
2022-10-08T20:54:17.261Z,13.77
2022-10-08T20:56:47.128Z,12.55
2022-10-08T20:59:19.008Z,16.00
2022-10-08T21:01:55.743Z,13.15
2022-10-08T21:04:24.097Z,17.52
2022-10-08T21:06:52.009Z,11.88
2022-10-08T21:09:24.013Z,14.80
2022-10-08T21:11:52.469Z,10.35
2022-10-08T21:14:22.759Z,9.60
2022-10-08T21:16:50.136Z,9.68
2022-10-08T21:19:22.309Z,9.43
2022-10-08T21:24:16.984Z,8.75
2022-10-08T21:26:44.430Z,6.57
2022-10-08T21:29:14.293Z,7.03
2022-10-08T21:31:42.339Z,12.10
2022-10-08T21:34:12.446Z,7.70
2022-10-08T21:36:41.476Z,7.80
2022-10-08T21:39:15.262Z,8.13
2022-10-08T21:41:42.353Z,10.48
2022-10-08T21:44:09.775Z,6.05
2022-10-08T21:46:40.905Z,9.05
2022-10-08T21:49:15.120Z,7.45
2022-10-08T21:51:45.359Z,12.00
2022-10-08T21:54:13.652Z,9.25
2022-10-08T21:56:42.383Z,9.00
2022-10-08T21:59:14.151Z,5.95
2022-10-08T22:01:48.159Z,8.50
2022-10-08T22:04:16.875Z,6.72
2022-10-08T22:06:50.979Z,4.72
2022-10-08T22:09:26.284Z,5.95
2022-10-08T22:11:55.504Z,6.53
2022-10-08T22:14:24.023Z,4.57
2022-10-08T22:16:56.316Z,5.45
2022-10-08T22:21:51.126Z,4.72
2022-10-08T22:24:18.636Z,4.75
2022-10-08T22:26:47.755Z,3.65
2022-10-08T22:29:15.308Z,6.65
2022-10-08T22:31:42.638Z,3.78
2022-10-08T22:34:10.145Z,3.58
2022-10-08T22:36:44.030Z,5.90
2022-10-08T22:39:11.932Z,4.20
2022-10-08T22:41:41.892Z,2.78
2022-10-08T22:44:09.235Z,6.80
2022-10-08T22:46:39.533Z,3.97
2022-10-08T22:49:12.291Z,4.03
2022-10-08T22:51:43.937Z,7.57
2022-10-08T22:54:11.168Z,4.95
2022-10-08T22:56:38.425Z,4.15
2022-10-08T22:59:05.530Z,3.75
2022-10-08T23:01:32.724Z,5.05
2022-10-08T23:03:59.987Z,7.63
2022-10-08T23:06:31.232Z,5.53
2022-10-08T23:09:02.277Z,2.97
2022-10-08T23:11:31.858Z,5.60
2022-10-08T23:14:00.814Z,6.03
2022-10-08T23:16:31.380Z,6.50
2022-10-08T23:19:05.861Z,5.47
2022-10-08T23:21:34.079Z,10.52
2022-10-08T23:24:01.454Z,5.38
2022-10-08T23:26:29.413Z,5.45
2022-10-08T23:29:00.450Z,6.75
2022-10-08T23:31:31.596Z,4.68
2022-10-08T23:33:59.930Z,4.93
2022-10-08T23:36:33.280Z,5.45
2022-10-08T23:39:00.614Z,6.95
2022-10-08T23:41:28.390Z,11.50
2022-10-08T23:43:57.447Z,4.63
2022-10-08T23:46:29.647Z,5.63
2022-10-08T23:51:31.683Z,4.80
2022-10-08T23:53:59.291Z,5.07
2022-10-08T23:56:26.844Z,4.95
2022-10-08T23:58:54.165Z,6.65
